ADDS METAR Data INFO
IDs: Format: Raw Decoded Include TAF

Data at: 0627 UTC 15 Dec 2017

KDYA 150615Z AUTO 00000KT 10SM 03/02 A3004 RMK AO2 T00260017
KDYA 150555Z AUTO 00000KT 10SM 03/02 A3004 RMK AO2 T00270019 10075 20026 401250015
KDYA 150535Z AUTO 00000KT 10SM 03/02 A3004 RMK AO2 T00280019
KDYA 150515Z AUTO 00000KT 10SM 03/02 A3004 RMK AO2 T00310021
KDYA 150455Z AUTO 00000KT 10SM 04/03 A3004 RMK AO2 T00350025
KDYA 150435Z AUTO 00000KT 10SM 04/03 A3005 RMK AO2 T00370026
KDYA 150415Z AUTO 00000KT 10SM 04/03 A3005 RMK AO2 T00400029
KDYA 150355Z AUTO 00000KT 10SM 04/03 A3004 RMK AO2 T00400028
KDYA 150335Z AUTO 00000KT 10SM 04/03 A3004 RMK AO2 T00420030
KDYA 150315Z AUTO 00000KT 10SM 04/03 A3003 RMK AO2 T00420031
KDYA 150255Z AUTO 00000KT 10SM 04/03 A3003 RMK AO2 T00440031
KDYA 150235Z AUTO 00000KT 10SM 05/03 A3003 RMK AO2 T00460032
KDYA 150215Z AUTO 00000KT 10SM 05/03 A3003 RMK AO2 T00480033
KDYA 150155Z AUTO 00000KT 10SM 06/04 A3003 RMK AO2 T00550038
KDYA 150135Z AUTO 00000KT 10SM 06/04 A3002 RMK AO2 T00550039
KDYA 150115Z AUTO 00000KT 10SM 06/04 A3002 RMK AO2 T00570040
KDYA 150055Z AUTO 00000KT 10SM 07/04 A3001 RMK AO2 T00650043
KDYA 150035Z AUTO 00000KT 10SM 07/05 A3001 RMK AO2 T00660046
KDYA 150015Z AUTO 00000KT 10SM 07/05 A3000 RMK AO2 T00700046
KDYA 142355Z AUTO 00000KT 10SM 08/05 A3000 RMK AO2 T00750049 10125 20075
KDYA 142335Z AUTO 00000KT 10SM 08/05 A2999 RMK AO2 T00760050
KDYA 142315Z AUTO 00000KT 10SM 08/05 A2998 RMK AO2 T00800050
KDYA 142255Z AUTO 00000KT 10SM 09/05 A2998 RMK AO2 T00860045
KDYA 142235Z AUTO 00000KT 10SM 10/04 A2998 RMK AO2 T00950043
KDYA 142215Z AUTO 00000KT 10SM 10/04 A2998 RMK AO2 T01020041
KDYA 142155Z AUTO 00000KT 10SM 10/05 A2997 RMK AO2 T01040048
KDYA 142135Z AUTO 00000KT 10SM 11/04 A2997 RMK AO2 T01120039
KDYA 142115Z AUTO 00000KT 10SM 12/02 A2997 RMK AO2 T01210022
KDYA 142055Z AUTO 00000KT 10SM 12/02 A2997 RMK AO2 T01230017
KDYA 142035Z AUTO 00000KT 10SM 12/02 A2997 RMK AO2 T01230016
KDYA 142015Z AUTO 00000KT 10SM 12/02 A2997 RMK AO2 T01240015
KDYA 141955Z AUTO 00000KT 10SM 12/02 A2997 RMK AO2 T01240016
KDYA 141935Z AUTO 00000KT 10SM 12/02 A2997 RMK AO2 T01230015
KDYA 141915Z AUTO 00000KT 10SM 12/02 A2997 RMK AO2 T01220017
KDYA 141855Z AUTO 15003KT 10SM 12/02 A2997 RMK AO2 T01180020
KDYA 141835Z AUTO 00000KT 10SM 11/01 A2997 RMK AO2 T01130011
KDYA 141815Z AUTO 00000KT 10SM 11/01 A2999 RMK AO2 T01110010
KDYA 141755Z AUTO 00000KT 10SM 11/01 A2999 RMK AO2 T01050012 10107 20015
KDYA 141735Z AUTO 22003KT 10SM 10/02 A3001 RMK AO2 T01040019
KDYA 141715Z AUTO 00000KT 10SM 10/01 A3001 RMK AO2 T00960014
KDYA 141655Z AUTO 00000KT 10SM 09/02 A3001 RMK AO2 T00930017
KDYA 141635Z AUTO 27004KT 10SM 09/02 A3002 RMK AO2 T00910020
KDYA 141615Z AUTO 22003KT 10SM 08/03 A3002 RMK AO2 T00810027
KDYA 141555Z AUTO 00000KT 10SM 07/03 A3001 RMK AO2 T00670028
KDYA 141535Z AUTO 00000KT 10SM 06/03 A3001 RMK AO2 T00580028
KDYA 141515Z AUTO 00000KT 10SM 05/03 A3000 RMK AO2 T00470025
KDYA 141455Z AUTO 00000KT 10SM 04/02 A2999 RMK AO2 T00370023
KDYA 141435Z AUTO 00000KT 10SM 03/02 A2999 RMK AO2 T00310017
KDYA 141415Z AUTO 00000KT 10SM 03/02 A2998 RMK AO2 T00290017
KDYA 141355Z AUTO 00000KT 10SM 02/01 A2998 RMK AO2 T00210010
KDYA 141335Z AUTO 00000KT 10SM 02/00 A2997 RMK AO2 T00160003
KDYA 141315Z AUTO 00000KT 10SM 02/01 A2997 RMK AO2 T00200005
KDYA 141255Z AUTO 00000KT 10SM 02/00 A2996 RMK AO2 T00150000
KDYA 141235Z AUTO 00000KT 10SM 02/00 A2995 RMK AO2 T00200004
KDYA 141215Z AUTO 00000KT 10SM 02/01 A2995 RMK AO2 T00240005
KDYA 141155Z AUTO 00000KT 10SM 02/00 A2994 RMK AO2 T00240001 10051 20024
KDYA 141135Z AUTO 00000KT 10SM 03/00 A2994 RMK AO2 T00310004
KDYA 141115Z AUTO 00000KT 10SM 04/00 A2994 RMK AO2 T00360004
KDYA 141055Z AUTO 00000KT 10SM 03/00 A2993 RMK AO2 T00330004
KDYA 141035Z AUTO 00000KT 10SM 03/00 A2993 RMK AO2 T00320002
KDYA 141015Z AUTO 13003KT 10SM 03/00 A2993 RMK AO2 T00310001
KDYA 140955Z AUTO 00000KT 10SM 04/00 A2993 RMK AO2 T00410002
KDYA 140935Z AUTO 16004KT 10SM 04/00 A2994 RMK AO2 T00360001
KDYA 140915Z AUTO 00000KT 10SM 04/00 A2993 RMK AO2 T00360000
KDYA 140855Z AUTO 00000KT 10SM 04/00 A2994 RMK AO2 T00410000
KDYA 140835Z AUTO 16003KT 10SM 03/00 A2994 RMK AO2 T00341001
KDYA 140815Z AUTO 16003KT 10SM 03/00 A2994 RMK AO2 T00301001
KDYA 140755Z AUTO 17003KT 10SM 04/00 A2994 RMK AO2 T00381002
KDYA 140735Z AUTO 00000KT 10SM 04/00 A2993 RMK AO2 T00410000
KDYA 140715Z AUTO 00000KT 10SM 04/00 A2994 RMK AO2 T00390000
KDYA 140655Z AUTO 00000KT 10SM 04/00 A2994 RMK AO2 T00351004
KDYA 140635Z AUTO 16003KT 10SM 04/00 A2994 RMK AO2 T00381005
KDYA 140615Z AUTO 18003KT 10SM 05/00 A2995 RMK AO2 T00451003
KDYA 140555Z AUTO 00000KT 10SM 06/00 A2995 RMK AO2 T00561004 10102 20049 401441029
KDYA 140535Z AUTO 19004KT 10SM 05/00 A2996 RMK AO2 T00491004
KDYA 140515Z AUTO 20005KT 10SM 07/00 A2995 RMK AO2 T00661005
KDYA 140455Z AUTO 20005KT 10SM 07/M01 A2995 RMK AO2 T00701006
KDYA 140435Z AUTO 20005KT 10SM 07/M01 A2994 RMK AO2 T00681007
KDYA 140415Z AUTO 20004KT 10SM 07/M01 A2994 RMK AO2 T00681010
KDYA 140355Z AUTO 20003KT 10SM 07/M01 A2994 RMK AO2 T00651010
KDYA 140335Z AUTO 21004KT 10SM 08/M01 A2993 RMK AO2 T00761014
KDYA 140315Z AUTO 20005KT 10SM 08/M01 A2993 RMK AO2 T00811015
KDYA 140255Z AUTO 19006KT 10SM 09/M02 A2993 RMK AO2 T00851019
KDYA 140235Z AUTO 20006KT 10SM 09/M02 A2993 RMK AO2 T00871021
KDYA 140215Z AUTO 19006KT 10SM 09/M02 A2992 RMK AO2 T00871025
KDYA 140155Z AUTO 20005KT 10SM 09/M03 A2993 RMK AO2 T00901026
KDYA 140135Z AUTO 19006KT 10SM 09/M03 A2993 RMK AO2 T00901027
KDYA 140115Z AUTO 19005KT 10SM 09/M03 A2993 RMK AO2 T00921030
KDYA 140055Z AUTO 19004KT 10SM 10/M03 A2993 RMK AO2 T00971033
KDYA 140035Z AUTO 19004KT 10SM 10/M03 A2993 RMK AO2 T01001035
KDYA 140015Z AUTO 18004KT 10SM 10/M04 A2993 RMK AO2 T01001036
KDYA 132355Z AUTO 18004KT 10SM 10/M04 A2993 RMK AO2 T01041038 10144 20104
KDYA 132335Z AUTO 19005KT 10SM 11/M04 A2994 RMK AO2 T01101042
KDYA 132315Z AUTO 19004KT 10SM 12/M04 A2995 RMK AO2 T01171044
KDYA 132255Z AUTO 20005KT 10SM 12/M04 A2996 RMK AO2 T01201042
KDYA 132235Z AUTO 20005KT 10SM 13/M04 A2997 RMK AO2 T01281040
KDYA 132215Z AUTO 21006KT 10SM 14/M04 A2997 RMK AO2 T01351043
KDYA 132155Z AUTO 20009KT 10SM 14/M05 A2997 RMK AO2 T01381047
KDYA 132135Z AUTO 20010KT 10SM 14/M05 A2997 RMK AO2 T01401046
KDYA 132115Z AUTO 21006G10KT 10SM 14/M05 A2998 RMK AO2 T01411047
KDYA 132055Z AUTO 20009G14KT 10SM 14/M05 A2998 RMK AO2 T01411049
KDYA 132035Z AUTO 22010KT 10SM 14/M04 A2999 RMK AO2 T01411043
KDYA 132015Z AUTO 19007KT 160V230 10SM 14/M05 A3000 RMK AO2 T01381047
KDYA 131955Z AUTO 19009KT 10SM 14/M05 A3001 RMK AO2 T01351053
KDYA 131935Z AUTO 22009G14KT 180V240 10SM 13/M05 A3002 RMK AO2 T01311047
KDYA 131915Z AUTO 20007KT 10SM 13/M05 A3002 RMK AO2 T01271049
KDYA 131855Z AUTO 20007KT 10SM 12/M05 A3003 RMK AO2 T01211049
KDYA 131835Z AUTO 17005KT 10SM 12/M05 A3004 RMK AO2 T01201052